F05

Wilbarger County Airport

Vernon, Texas, USA
METAR KF05 092115Z AUTO 33005KT 10SM CLR 10/M06 A3035 RMK AO1 T00961058
Observed Flight Rules
Dec-9 @ 21:15 UTC (24 minutes ago) Visual Flight Rules
Wind Visibility Clouds
330° at 5 knots 10 miles
  • Clear skies
Temperatures Readings
Current 10°C / 50°F
Dewpoint -6°C / 21°F
Humidity 32%
Altimeter 30.35" Hg
Pressure 1028 hPa
Elevation 386
METAR KF05 092115Z AUTO 33005KT 10SM CLR 10/M06 A3035 RMK AO1 T00961058
Observed Flight Rules
Dec-9 @ 21:15 UTC
(24 minutes ago)
VFR
Wind Visibility
330° at 5 knots 10 miles
Clouds
  • Clear skies
Temperature Dewpoint
10°C / 50°F -6°C / 21°F
Humidity Altimeter Pressure
32% 30.35" Hg 1028 hPa